sensor_id;sensor_type;location;lat;lon;timestamp;P1;durP1;ratioP1;P2;durP2;ratioP2
23362;SDS011;11853;48.080;11.960;2023-12-28T00:00:39;6.68;;;4.72;;
23362;SDS011;11853;48.080;11.960;2023-12-28T00:03:05;6.50;;;5.35;;
23362;SDS011;11853;48.080;11.960;2023-12-28T00:05:31;6.20;;;4.60;;
23362;SDS011;11853;48.080;11.960;2023-12-28T00:07:56;5.97;;;4.60;;
23362;SDS011;11853;48.080;11.960;2023-12-28T00:10:23;4.63;;;4.22;;
23362;SDS011;11853;48.080;11.960;2023-12-28T00:12:50;6.50;;;4.68;;
23362;SDS011;11853;48.080;11.960;2023-12-28T00:15:15;4.63;;;4.20;;
23362;SDS011;11853;48.080;11.960;2023-12-28T00:17:41;5.82;;;4.60;;
23362;SDS011;11853;48.080;11.960;2023-12-28T00:20:07;4.70;;;4.30;;
23362;SDS011;11853;48.080;11.960;2023-12-28T00:22:32;4.80;;;4.30;;
23362;SDS011;11853;48.080;11.960;2023-12-28T00:24:58;6.30;;;4.43;;
23362;SDS011;11853;48.080;11.960;2023-12-28T00:27:24;7.35;;;4.90;;
23362;SDS011;11853;48.080;11.960;2023-12-28T00:29:50;7.20;;;4.47;;
23362;SDS011;11853;48.080;11.960;2023-12-28T00:32:15;5.82;;;4.68;;
23362;SDS011;11853;48.080;11.960;2023-12-28T00:34:41;5.72;;;4.45;;
23362;SDS011;11853;48.080;11.960;2023-12-28T00:37:06;6.07;;;4.32;;
23362;SDS011;11853;48.080;11.960;2023-12-28T00:39:32;5.47;;;4.20;;
23362;SDS011;11853;48.080;11.960;2023-12-28T00:41:59;4.78;;;4.25;;
23362;SDS011;11853;48.080;11.960;2023-12-28T00:44:25;5.05;;;4.10;;
23362;SDS011;11853;48.080;11.960;2023-12-28T00:46:50;6.30;;;4.13;;
23362;SDS011;11853;48.080;11.960;2023-12-28T00:49:16;4.68;;;4.03;;
23362;SDS011;11853;48.080;11.960;2023-12-28T00:51:41;4.55;;;4.05;;
23362;SDS011;11853;48.080;11.960;2023-12-28T00:54:07;5.20;;;4.55;;
23362;SDS011;11853;48.080;11.960;2023-12-28T00:56:33;5.07;;;4.07;;
23362;SDS011;11853;48.080;11.960;2023-12-28T00:58:58;5.00;;;4.50;;
23362;SDS011;11853;48.080;11.960;2023-12-28T01:01:26;6.10;;;4.65;;
23362;SDS011;11853;48.080;11.960;2023-12-28T01:03:52;4.35;;;3.83;;
23362;SDS011;11853;48.080;11.960;2023-12-28T01:06:17;4.50;;;3.53;;
23362;SDS011;11853;48.080;11.960;2023-12-28T01:08:43;6.75;;;4.55;;
23362;SDS011;11853;48.080;11.960;2023-12-28T01:11:10;4.90;;;4.40;;
23362;SDS011;11853;48.080;11.960;2023-12-28T01:13:37;5.82;;;4.10;;
23362;SDS011;11853;48.080;11.960;2023-12-28T01:16:02;4.07;;;3.63;;
23362;SDS011;11853;48.080;11.960;2023-12-28T01:18:29;4.95;;;3.65;;
23362;SDS011;11853;48.080;11.960;2023-12-28T01:20:54;5.03;;;4.53;;
23362;SDS011;11853;48.080;11.960;2023-12-28T01:23:20;5.13;;;4.35;;
23362;SDS011;11853;48.080;11.960;2023-12-28T01:25:45;4.60;;;4.10;;
23362;SDS011;11853;48.080;11.960;2023-12-28T01:28:11;5.07;;;4.30;;
23362;SDS011;11853;48.080;11.960;2023-12-28T01:30:37;5.30;;;4.30;;
23362;SDS011;11853;48.080;11.960;2023-12-28T01:33:03;5.32;;;4.18;;
23362;SDS011;11853;48.080;11.960;2023-12-28T01:35:29;6.00;;;3.80;;
23362;SDS011;11853;48.080;11.960;2023-12-28T01:37:54;4.75;;;3.72;;
23362;SDS011;11853;48.080;11.960;2023-12-28T01:40:20;3.80;;;3.35;;
23362;SDS011;11853;48.080;11.960;2023-12-28T01:42:46;3.58;;;3.28;;
23362;SDS011;11853;48.080;11.960;2023-12-28T01:45:11;4.47;;;3.85;;
23362;SDS011;11853;48.080;11.960;2023-12-28T01:47:37;4.40;;;3.55;;
23362;SDS011;11853;48.080;11.960;2023-12-28T01:50:03;4.25;;;3.28;;
23362;SDS011;11853;48.080;11.960;2023-12-28T01:52:31;5.18;;;3.72;;
23362;SDS011;11853;48.080;11.960;2023-12-28T01:54:57;4.00;;;3.47;;
23362;SDS011;11853;48.080;11.960;2023-12-28T01:57:22;3.63;;;3.30;;
23362;SDS011;11853;48.080;11.960;2023-12-28T01:59:49;4.78;;;3.33;;
23362;SDS011;11853;48.080;11.960;2023-12-28T02:02:15;3.95;;;3.30;;
23362;SDS011;11853;48.080;11.960;2023-12-28T02:04:41;4.15;;;2.90;;
23362;SDS011;11853;48.080;11.960;2023-12-28T02:07:07;3.55;;;3.13;;
23362;SDS011;11853;48.080;11.960;2023-12-28T02:09:33;3.30;;;2.97;;
23362;SDS011;11853;48.080;11.960;2023-12-28T02:11:59;3.05;;;2.70;;
23362;SDS011;11853;48.080;11.960;2023-12-28T02:14:24;4.13;;;3.03;;
23362;SDS011;11853;48.080;11.960;2023-12-28T02:19:48;3.22;;;2.92;;
23362;SDS011;11853;48.080;11.960;2023-12-28T02:22:16;3.28;;;2.53;;
23362;SDS011;11853;48.080;11.960;2023-12-28T02:27:29;2.50;;;2.28;;
23362;SDS011;11853;48.080;11.960;2023-12-28T02:29:55;2.47;;;2.28;;
23362;SDS011;11853;48.080;11.960;2023-12-28T02:32:24;3.25;;;2.63;;
23362;SDS011;11853;48.080;11.960;2023-12-28T02:35:00;4.25;;;2.70;;
23362;SDS011;11853;48.080;11.960;2023-12-28T02:37:29;4.60;;;3.00;;
23362;SDS011;11853;48.080;11.960;2023-12-28T02:39:57;3.28;;;2.97;;
23362;SDS011;11853;48.080;11.960;2023-12-28T02:42:23;6.63;;;3.10;;
23362;SDS011;11853;48.080;11.960;2023-12-28T02:44:49;3.63;;;2.90;;
23362;SDS011;11853;48.080;11.960;2023-12-28T02:47:15;2.70;;;2.50;;
23362;SDS011;11853;48.080;11.960;2023-12-28T02:49:41;2.53;;;2.33;;
23362;SDS011;11853;48.080;11.960;2023-12-28T02:52:06;2.83;;;2.45;;
23362;SDS011;11853;48.080;11.960;2023-12-28T02:54:32;2.63;;;2.35;;
23362;SDS011;11853;48.080;11.960;2023-12-28T02:56:57;2.78;;;2.08;;
23362;SDS011;11853;48.080;11.960;2023-12-28T02:59:23;2.83;;;2.45;;
23362;SDS011;11853;48.080;11.960;2023-12-28T03:01:49;3.45;;;2.45;;
23362;SDS011;11853;48.080;11.960;2023-12-28T03:04:15;3.83;;;2.13;;
23362;SDS011;11853;48.080;11.960;2023-12-28T03:06:40;3.80;;;2.33;;
23362;SDS011;11853;48.080;11.960;2023-12-28T03:09:07;2.92;;;2.63;;
23362;SDS011;11853;48.080;11.960;2023-12-28T03:11:32;2.70;;;2.50;;
23362;SDS011;11853;48.080;11.960;2023-12-28T03:13:58;3.35;;;2.22;;
23362;SDS011;11853;48.080;11.960;2023-12-28T03:16:24;3.05;;;2.70;;
23362;SDS011;11853;48.080;11.960;2023-12-28T03:18:49;2.53;;;2.33;;
23362;SDS011;11853;48.080;11.960;2023-12-28T03:21:15;2.85;;;2.53;;
23362;SDS011;11853;48.080;11.960;2023-12-28T03:23:41;3.50;;;2.53;;
23362;SDS011;11853;48.080;11.960;2023-12-28T03:26:06;2.72;;;2.53;;
23362;SDS011;11853;48.080;11.960;2023-12-28T03:28:32;2.97;;;2.67;;
23362;SDS011;11853;48.080;11.960;2023-12-28T03:30:58;3.55;;;2.90;;
23362;SDS011;11853;48.080;11.960;2023-12-28T03:33:24;3.35;;;2.60;;
23362;SDS011;11853;48.080;11.960;2023-12-28T03:35:49;3.08;;;2.65;;
23362;SDS011;11853;48.080;11.960;2023-12-28T03:38:16;3.15;;;2.80;;
23362;SDS011;11853;48.080;11.960;2023-12-28T03:40:42;3.20;;;2.85;;
23362;SDS011;11853;48.080;11.960;2023-12-28T03:43:08;3.03;;;2.67;;
23362;SDS011;11853;48.080;11.960;2023-12-28T03:45:33;2.90;;;2.70;;
23362;SDS011;11853;48.080;11.960;2023-12-28T03:47:59;3.53;;;2.53;;
23362;SDS011;11853;48.080;11.960;2023-12-28T03:50:25;2.63;;;2.40;;
23362;SDS011;11853;48.080;11.960;2023-12-28T03:52:50;3.50;;;2.80;;
23362;SDS011;11853;48.080;11.960;2023-12-28T03:55:16;2.83;;;2.55;;
23362;SDS011;11853;48.080;11.960;2023-12-28T03:57:41;3.08;;;2.75;;
23362;SDS011;11853;48.080;11.960;2023-12-28T04:00:07;2.35;;;2.10;;
23362;SDS011;11853;48.080;11.960;2023-12-28T04:02:33;4.85;;;2.67;;
23362;SDS011;11853;48.080;11.960;2023-12-28T04:04:59;3.35;;;2.63;;
23362;SDS011;11853;48.080;11.960;2023-12-28T04:07:25;2.40;;;2.20;;
23362;SDS011;11853;48.080;11.960;2023-12-28T04:09:50;3.40;;;2.80;;
23362;SDS011;11853;48.080;11.960;2023-12-28T04:12:16;2.95;;;2.60;;
23362;SDS011;11853;48.080;11.960;2023-12-28T04:14:41;3.22;;;2.70;;
23362;SDS011;11853;48.080;11.960;2023-12-28T04:17:07;2.97;;;2.67;;
23362;SDS011;11853;48.080;11.960;2023-12-28T04:19:33;2.63;;;2.13;;
23362;SDS011;11853;48.080;11.960;2023-12-28T04:21:58;3.25;;;2.70;;
23362;SDS011;11853;48.080;11.960;2023-12-28T04:24:24;2.20;;;2.10;;
23362;SDS011;11853;48.080;11.960;2023-12-28T04:26:49;3.63;;;2.38;;
23362;SDS011;11853;48.080;11.960;2023-12-28T04:32:00;3.65;;;2.47;;
23362;SDS011;11853;48.080;11.960;2023-12-28T04:34:26;2.58;;;2.38;;
23362;SDS011;11853;48.080;11.960;2023-12-28T04:36:51;2.80;;;2.45;;
23362;SDS011;11853;48.080;11.960;2023-12-28T04:39:17;2.78;;;2.58;;
23362;SDS011;11853;48.080;11.960;2023-12-28T04:41:43;3.20;;;2.90;;
23362;SDS011;11853;48.080;11.960;2023-12-28T04:44:08;3.63;;;2.90;;
23362;SDS011;11853;48.080;11.960;2023-12-28T04:46:37;3.92;;;2.60;;
23362;SDS011;11853;48.080;11.960;2023-12-28T04:49:06;3.97;;;2.67;;
23362;SDS011;11853;48.080;11.960;2023-12-28T04:51:32;2.90;;;2.42;;
23362;SDS011;11853;48.080;11.960;2023-12-28T04:53:57;2.65;;;2.40;;
23362;SDS011;11853;48.080;11.960;2023-12-28T04:56:23;2.60;;;2.38;;
23362;SDS011;11853;48.080;11.960;2023-12-28T04:58:48;2.83;;;2.63;;
23362;SDS011;11853;48.080;11.960;2023-12-28T05:01:14;3.00;;;2.70;;
23362;SDS011;11853;48.080;11.960;2023-12-28T05:03:39;2.53;;;2.30;;
23362;SDS011;11853;48.080;11.960;2023-12-28T05:06:05;4.13;;;2.40;;
23362;SDS011;11853;48.080;11.960;2023-12-28T05:08:31;3.10;;;2.53;;
23362;SDS011;11853;48.080;11.960;2023-12-28T05:10:56;2.70;;;2.35;;
23362;SDS011;11853;48.080;11.960;2023-12-28T05:13:22;2.65;;;2.45;;
23362;SDS011;11853;48.080;11.960;2023-12-28T05:15:47;3.00;;;2.47;;
23362;SDS011;11853;48.080;11.960;2023-12-28T05:18:13;2.95;;;2.58;;
23362;SDS011;11853;48.080;11.960;2023-12-28T05:20:39;2.47;;;2.10;;
23362;SDS011;11853;48.080;11.960;2023-12-28T05:23:04;2.60;;;2.40;;
23362;SDS011;11853;48.080;11.960;2023-12-28T05:25:30;2.03;;;1.83;;
23362;SDS011;11853;48.080;11.960;2023-12-28T05:27:56;2.22;;;1.88;;
23362;SDS011;11853;48.080;11.960;2023-12-28T05:30:21;2.72;;;2.10;;
23362;SDS011;11853;48.080;11.960;2023-12-28T05:32:47;2.17;;;1.98;;
23362;SDS011;11853;48.080;11.960;2023-12-28T05:35:12;2.00;;;1.90;;
23362;SDS011;11853;48.080;11.960;2023-12-28T05:37:38;2.78;;;2.15;;
23362;SDS011;11853;48.080;11.960;2023-12-28T05:40:04;1.98;;;1.88;;
23362;SDS011;11853;48.080;11.960;2023-12-28T05:42:30;2.30;;;2.10;;
23362;SDS011;11853;48.080;11.960;2023-12-28T05:44:56;2.17;;;2.00;;
23362;SDS011;11853;48.080;11.960;2023-12-28T05:47:21;2.88;;;2.22;;
23362;SDS011;11853;48.080;11.960;2023-12-28T05:49:47;2.15;;;1.92;;
23362;SDS011;11853;48.080;11.960;2023-12-28T05:52:13;2.10;;;1.95;;
23362;SDS011;11853;48.080;11.960;2023-12-28T05:54:40;1.92;;;1.80;;
23362;SDS011;11853;48.080;11.960;2023-12-28T05:57:07;3.53;;;2.13;;
23362;SDS011;11853;48.080;11.960;2023-12-28T05:59:36;3.83;;;2.35;;
23362;SDS011;11853;48.080;11.960;2023-12-28T06:02:03;2.88;;;2.65;;
23362;SDS011;11853;48.080;11.960;2023-12-28T06:04:29;2.80;;;2.28;;
23362;SDS011;11853;48.080;11.960;2023-12-28T06:06:55;2.75;;;2.03;;
23362;SDS011;11853;48.080;11.960;2023-12-28T06:09:20;3.38;;;2.80;;
23362;SDS011;11853;48.080;11.960;2023-12-28T06:11:46;4.43;;;3.33;;
23362;SDS011;11853;48.080;11.960;2023-12-28T06:14:11;4.07;;;3.28;;
23362;SDS011;11853;48.080;11.960;2023-12-28T06:16:37;5.40;;;3.95;;
23362;SDS011;11853;48.080;11.960;2023-12-28T06:19:03;6.93;;;4.15;;
23362;SDS011;11853;48.080;11.960;2023-12-28T06:21:28;3.05;;;2.28;;
23362;SDS011;11853;48.080;11.960;2023-12-28T06:23:55;2.75;;;2.55;;
23362;SDS011;11853;48.080;11.960;2023-12-28T06:26:20;2.40;;;2.17;;
23362;SDS011;11853;48.080;11.960;2023-12-28T06:28:46;3.58;;;2.47;;
23362;SDS011;11853;48.080;11.960;2023-12-28T06:31:12;1.83;;;1.73;;
23362;SDS011;11853;48.080;11.960;2023-12-28T06:33:37;2.80;;;1.67;;
23362;SDS011;11853;48.080;11.960;2023-12-28T06:36:06;2.60;;;1.77;;
23362;SDS011;11853;48.080;11.960;2023-12-28T06:38:32;2.17;;;1.55;;
23362;SDS011;11853;48.080;11.960;2023-12-28T06:40:58;2.25;;;1.77;;
23362;SDS011;11853;48.080;11.960;2023-12-28T06:43:24;1.65;;;1.55;;
23362;SDS011;11853;48.080;11.960;2023-12-28T06:45:49;2.60;;;2.40;;
23362;SDS011;11853;48.080;11.960;2023-12-28T06:48:17;2.17;;;1.98;;
23362;SDS011;11853;48.080;11.960;2023-12-28T06:50:42;2.22;;;2.08;;
23362;SDS011;11853;48.080;11.960;2023-12-28T06:53:08;2.97;;;2.10;;
23362;SDS011;11853;48.080;11.960;2023-12-28T06:55:33;2.97;;;2.42;;
23362;SDS011;11853;48.080;11.960;2023-12-28T06:57:59;2.70;;;2.50;;
23362;SDS011;11853;48.080;11.960;2023-12-28T07:00:25;1.83;;;1.73;;
23362;SDS011;11853;48.080;11.960;2023-12-28T07:02:51;1.80;;;1.58;;
23362;SDS011;11853;48.080;11.960;2023-12-28T07:05:16;2.72;;;1.85;;
23362;SDS011;11853;48.080;11.960;2023-12-28T07:07:42;2.08;;;1.40;;
23362;SDS011;11853;48.080;11.960;2023-12-28T07:10:08;3.25;;;1.50;;
23362;SDS011;11853;48.080;11.960;2023-12-28T07:12:33;1.88;;;1.55;;
23362;SDS011;11853;48.080;11.960;2023-12-28T07:14:59;1.50;;;1.40;;
23362;SDS011;11853;48.080;11.960;2023-12-28T07:17:25;2.30;;;2.10;;
23362;SDS011;11853;48.080;11.960;2023-12-28T07:19:50;2.70;;;2.20;;
23362;SDS011;11853;48.080;11.960;2023-12-28T07:22:16;2.53;;;2.33;;
23362;SDS011;11853;48.080;11.960;2023-12-28T07:24:41;2.67;;;2.40;;
23362;SDS011;11853;48.080;11.960;2023-12-28T07:27:07;3.05;;;2.65;;
23362;SDS011;11853;48.080;11.960;2023-12-28T07:29:33;3.25;;;2.58;;
23362;SDS011;11853;48.080;11.960;2023-12-28T07:31:58;2.95;;;2.67;;
23362;SDS011;11853;48.080;11.960;2023-12-28T07:34:24;5.18;;;3.20;;
23362;SDS011;11853;48.080;11.960;2023-12-28T07:36:49;6.40;;;4.45;;
23362;SDS011;11853;48.080;11.960;2023-12-28T07:39:15;5.28;;;3.97;;
23362;SDS011;11853;48.080;11.960;2023-12-28T07:41:41;5.30;;;4.00;;
23362;SDS011;11853;48.080;11.960;2023-12-28T07:44:06;5.28;;;3.35;;
23362;SDS011;11853;48.080;11.960;2023-12-28T07:46:32;3.83;;;3.17;;
23362;SDS011;11853;48.080;11.960;2023-12-28T07:49:01;3.45;;;3.15;;
23362;SDS011;11853;48.080;11.960;2023-12-28T07:51:33;4.07;;;3.38;;
23362;SDS011;11853;48.080;11.960;2023-12-28T07:54:01;5.45;;;3.65;;
23362;SDS011;11853;48.080;11.960;2023-12-28T07:56:26;3.85;;;2.85;;
23362;SDS011;11853;48.080;11.960;2023-12-28T07:58:52;3.38;;;2.70;;
23362;SDS011;11853;48.080;11.960;2023-12-28T08:01:18;3.17;;;2.65;;
23362;SDS011;11853;48.080;11.960;2023-12-28T08:03:44;3.67;;;2.60;;
23362;SDS011;11853;48.080;11.960;2023-12-28T08:06:12;3.25;;;2.40;;
23362;SDS011;11853;48.080;11.960;2023-12-28T08:08:38;2.33;;;2.13;;
23362;SDS011;11853;48.080;11.960;2023-12-28T08:11:04;2.22;;;2.13;;
23362;SDS011;11853;48.080;11.960;2023-12-28T08:13:30;2.13;;;1.85;;
23362;SDS011;11853;48.080;11.960;2023-12-28T08:15:56;2.58;;;2.03;;
23362;SDS011;11853;48.080;11.960;2023-12-28T08:18:21;2.38;;;2.17;;
23362;SDS011;11853;48.080;11.960;2023-12-28T08:20:47;2.20;;;2.03;;
23362;SDS011;11853;48.080;11.960;2023-12-28T08:23:14;2.38;;;2.17;;
23362;SDS011;11853;48.080;11.960;2023-12-28T08:25:40;2.95;;;2.47;;
23362;SDS011;11853;48.080;11.960;2023-12-28T08:28:05;3.55;;;3.25;;
23362;SDS011;11853;48.080;11.960;2023-12-28T08:30:31;2.40;;;2.20;;
23362;SDS011;11853;48.080;11.960;2023-12-28T08:32:57;2.85;;;2.50;;
23362;SDS011;11853;48.080;11.960;2023-12-28T08:35:22;2.88;;;2.25;;
23362;SDS011;11853;48.080;11.960;2023-12-28T08:37:48;2.05;;;1.95;;
23362;SDS011;11853;48.080;11.960;2023-12-28T08:40:14;2.92;;;2.20;;
23362;SDS011;11853;48.080;11.960;2023-12-28T08:42:39;2.40;;;2.20;;
23362;SDS011;11853;48.080;11.960;2023-12-28T08:45:05;3.40;;;2.50;;
23362;SDS011;11853;48.080;11.960;2023-12-28T08:47:31;2.95;;;2.70;;
23362;SDS011;11853;48.080;11.960;2023-12-28T08:49:56;2.80;;;2.60;;
23362;SDS011;11853;48.080;11.960;2023-12-28T08:52:22;1.95;;;1.85;;
23362;SDS011;11853;48.080;11.960;2023-12-28T08:54:48;2.33;;;1.88;;
23362;SDS011;11853;48.080;11.960;2023-12-28T08:57:13;2.05;;;1.92;;
23362;SDS011;11853;48.080;11.960;2023-12-28T08:59:39;2.63;;;1.77;;
23362;SDS011;11853;48.080;11.960;2023-12-28T09:02:05;1.92;;;1.83;;
23362;SDS011;11853;48.080;11.960;2023-12-28T09:04:32;1.70;;;1.60;;
23362;SDS011;11853;48.080;11.960;2023-12-28T09:06:58;2.80;;;1.65;;
23362;SDS011;11853;48.080;11.960;2023-12-28T09:09:23;1.75;;;1.65;;
23362;SDS011;11853;48.080;11.960;2023-12-28T09:11:49;2.15;;;1.95;;
23362;SDS011;11853;48.080;11.960;2023-12-28T09:14:15;3.28;;;2.92;;
23362;SDS011;11853;48.080;11.960;2023-12-28T09:16:40;2.30;;;2.10;;
23362;SDS011;11853;48.080;11.960;2023-12-28T09:19:07;1.90;;;1.80;;
23362;SDS011;11853;48.080;11.960;2023-12-28T09:21:33;1.88;;;1.77;;
23362;SDS011;11853;48.080;11.960;2023-12-28T09:23:59;1.85;;;1.60;;
23362;SDS011;11853;48.080;11.960;2023-12-28T09:26:25;2.03;;;1.92;;
23362;SDS011;11853;48.080;11.960;2023-12-28T09:28:50;1.80;;;1.70;;
23362;SDS011;11853;48.080;11.960;2023-12-28T09:31:16;1.67;;;1.55;;
23362;SDS011;11853;48.080;11.960;2023-12-28T09:33:42;2.17;;;1.83;;
23362;SDS011;11853;48.080;11.960;2023-12-28T09:36:09;2.60;;;2.25;;
23362;SDS011;11853;48.080;11.960;2023-12-28T09:38:37;3.45;;;3.13;;
23362;SDS011;11853;48.080;11.960;2023-12-28T09:41:06;2.60;;;2.40;;
23362;SDS011;11853;48.080;11.960;2023-12-28T09:43:40;3.47;;;2.90;;
23362;SDS011;11853;48.080;11.960;2023-12-28T09:46:16;3.13;;;2.60;;
23362;SDS011;11853;48.080;11.960;2023-12-28T09:48:42;3.88;;;3.13;;
23362;SDS011;11853;48.080;11.960;2023-12-28T09:51:08;3.58;;;3.28;;
23362;SDS011;11853;48.080;11.960;2023-12-28T09:53:35;3.53;;;3.22;;
23362;SDS011;11853;48.080;11.960;2023-12-28T09:56:01;5.05;;;3.60;;
23362;SDS011;11853;48.080;11.960;2023-12-28T09:58:31;4.78;;;3.90;;
23362;SDS011;11853;48.080;11.960;2023-12-28T10:01:00;4.13;;;3.70;;
23362;SDS011;11853;48.080;11.960;2023-12-28T10:03:27;5.15;;;3.85;;
23362;SDS011;11853;48.080;11.960;2023-12-28T10:05:52;4.03;;;3.63;;
23362;SDS011;11853;48.080;11.960;2023-12-28T10:08:18;5.07;;;3.60;;
23362;SDS011;11853;48.080;11.960;2023-12-28T10:10:44;4.60;;;4.20;;
23362;SDS011;11853;48.080;11.960;2023-12-28T10:15:42;4.30;;;3.50;;
23362;SDS011;11853;48.080;11.960;2023-12-28T10:18:11;4.15;;;3.58;;
23362;SDS011;11853;48.080;11.960;2023-12-28T10:20:37;6.60;;;3.95;;
23362;SDS011;11853;48.080;11.960;2023-12-28T10:23:03;4.65;;;3.40;;
23362;SDS011;11853;48.080;11.960;2023-12-28T10:25:30;5.30;;;4.28;;
23362;SDS011;11853;48.080;11.960;2023-12-28T10:27:57;7.53;;;4.75;;
23362;SDS011;11853;48.080;11.960;2023-12-28T10:30:24;7.93;;;4.78;;
23362;SDS011;11853;48.080;11.960;2023-12-28T10:32:49;6.70;;;4.63;;
23362;SDS011;11853;48.080;11.960;2023-12-28T10:35:15;6.72;;;4.43;;
23362;SDS011;11853;48.080;11.960;2023-12-28T10:37:42;4.90;;;4.30;;
23362;SDS011;11853;48.080;11.960;2023-12-28T10:40:11;4.13;;;3.72;;
23362;SDS011;11853;48.080;11.960;2023-12-28T10:43:04;4.45;;;3.58;;
23362;SDS011;11853;48.080;11.960;2023-12-28T10:45:32;5.32;;;4.00;;
23362;SDS011;11853;48.080;11.960;2023-12-28T10:48:10;5.90;;;4.32;;
23362;SDS011;11853;48.080;11.960;2023-12-28T10:50:40;5.05;;;3.58;;
23362;SDS011;11853;48.080;11.960;2023-12-28T10:56:08;5.65;;;3.95;;
23362;SDS011;11853;48.080;11.960;2023-12-28T11:01:31;2.88;;;2.47;;
23362;SDS011;11853;48.080;11.960;2023-12-28T11:04:02;2.25;;;2.05;;
23362;SDS011;11853;48.080;11.960;2023-12-28T11:06:33;2.47;;;2.10;;
23362;SDS011;11853;48.080;11.960;2023-12-28T11:09:01;2.90;;;2.33;;
23362;SDS011;11853;48.080;11.960;2023-12-28T11:11:28;2.45;;;2.25;;
23362;SDS011;11853;48.080;11.960;2023-12-28T11:13:55;2.80;;;2.50;;
23362;SDS011;11853;48.080;11.960;2023-12-28T11:16:22;3.05;;;2.75;;
23362;SDS011;11853;48.080;11.960;2023-12-28T11:18:48;3.95;;;2.90;;
23362;SDS011;11853;48.080;11.960;2023-12-28T11:21:15;8.25;;;5.55;;
23362;SDS011;11853;48.080;11.960;2023-12-28T11:23:42;10.15;;;5.18;;
23362;SDS011;11853;48.080;11.960;2023-12-28T11:26:16;10.05;;;6.68;;
23362;SDS011;11853;48.080;11.960;2023-12-28T11:28:43;5.03;;;3.53;;
23362;SDS011;11853;48.080;11.960;2023-12-28T11:31:09;2.30;;;2.10;;
23362;SDS011;11853;48.080;11.960;2023-12-28T11:33:45;2.33;;;2.13;;
23362;SDS011;11853;48.080;11.960;2023-12-28T11:38:56;3.25;;;1.77;;
23362;SDS011;11853;48.080;11.960;2023-12-28T11:41:27;2.25;;;1.98;;
23362;SDS011;11853;48.080;11.960;2023-12-28T11:43:56;2.72;;;2.10;;
23362;SDS011;11853;48.080;11.960;2023-12-28T11:46:22;3.63;;;3.05;;
23362;SDS011;11853;48.080;11.960;2023-12-28T11:48:48;2.42;;;2.22;;
23362;SDS011;11853;48.080;11.960;2023-12-28T11:51:14;3.97;;;2.63;;
23362;SDS011;11853;48.080;11.960;2023-12-28T11:53:40;3.55;;;2.65;;
23362;SDS011;11853;48.080;11.960;2023-12-28T11:56:07;2.30;;;2.10;;
23362;SDS011;11853;48.080;11.960;2023-12-28T11:58:34;2.90;;;1.85;;
23362;SDS011;11853;48.080;11.960;2023-12-28T12:01:04;3.35;;;1.80;;
23362;SDS011;11853;48.080;11.960;2023-12-28T12:03:29;2.08;;;1.85;;
23362;SDS011;11853;48.080;11.960;2023-12-28T12:05:55;3.55;;;2.38;;
23362;SDS011;11853;48.080;11.960;2023-12-28T12:08:22;2.28;;;2.10;;
23362;SDS011;11853;48.080;11.960;2023-12-28T12:10:48;2.35;;;2.03;;
23362;SDS011;11853;48.080;11.960;2023-12-28T12:13:24;2.78;;;2.35;;
23362;SDS011;11853;48.080;11.960;2023-12-28T12:15:51;2.50;;;2.30;;
23362;SDS011;11853;48.080;11.960;2023-12-28T12:18:17;3.42;;;2.30;;
23362;SDS011;11853;48.080;11.960;2023-12-28T12:20:43;3.85;;;2.30;;
23362;SDS011;11853;48.080;11.960;2023-12-28T12:23:09;3.10;;;2.03;;
23362;SDS011;11853;48.080;11.960;2023-12-28T12:25:36;2.42;;;2.22;;
23362;SDS011;11853;48.080;11.960;2023-12-28T12:28:03;2.88;;;2.00;;
23362;SDS011;11853;48.080;11.960;2023-12-28T12:30:29;2.50;;;2.30;;
23362;SDS011;11853;48.080;11.960;2023-12-28T12:32:55;2.40;;;2.20;;
23362;SDS011;11853;48.080;11.960;2023-12-28T12:35:21;3.60;;;2.83;;
23362;SDS011;11853;48.080;11.960;2023-12-28T12:37:47;4.22;;;3.47;;
23362;SDS011;11853;48.080;11.960;2023-12-28T12:40:15;6.28;;;4.30;;
23362;SDS011;11853;48.080;11.960;2023-12-28T12:42:42;4.63;;;3.80;;
23362;SDS011;11853;48.080;11.960;2023-12-28T12:45:08;4.47;;;3.47;;
23362;SDS011;11853;48.080;11.960;2023-12-28T12:47:34;3.58;;;3.20;;
23362;SDS011;11853;48.080;11.960;2023-12-28T12:50:00;4.50;;;3.38;;
23362;SDS011;11853;48.080;11.960;2023-12-28T12:52:26;3.47;;;2.92;;
23362;SDS011;11853;48.080;11.960;2023-12-28T12:54:56;3.10;;;2.80;;
23362;SDS011;11853;48.080;11.960;2023-12-28T12:57:22;3.67;;;2.53;;
23362;SDS011;11853;48.080;11.960;2023-12-28T12:59:49;4.40;;;3.00;;
23362;SDS011;11853;48.080;11.960;2023-12-28T13:02:15;2.65;;;2.33;;
23362;SDS011;11853;48.080;11.960;2023-12-28T13:04:42;2.90;;;2.67;;
23362;SDS011;11853;48.080;11.960;2023-12-28T13:07:07;3.25;;;2.42;;
23362;SDS011;11853;48.080;11.960;2023-12-28T13:09:34;3.65;;;2.60;;
23362;SDS011;11853;48.080;11.960;2023-12-28T13:12:00;2.65;;;2.42;;
23362;SDS011;11853;48.080;11.960;2023-12-28T13:14:28;3.08;;;2.78;;
23362;SDS011;11853;48.080;11.960;2023-12-28T13:16:55;2.88;;;2.40;;
23362;SDS011;11853;48.080;11.960;2023-12-28T13:19:21;3.72;;;2.97;;
23362;SDS011;11853;48.080;11.960;2023-12-28T13:21:46;3.70;;;3.17;;
23362;SDS011;11853;48.080;11.960;2023-12-28T13:24:12;3.63;;;3.33;;
23362;SDS011;11853;48.080;11.960;2023-12-28T13:26:38;6.55;;;3.65;;
23362;SDS011;11853;48.080;11.960;2023-12-28T13:29:03;4.28;;;3.80;;
23362;SDS011;11853;48.080;11.960;2023-12-28T13:31:29;4.10;;;3.70;;
23362;SDS011;11853;48.080;11.960;2023-12-28T13:33:55;4.30;;;3.65;;
23362;SDS011;11853;48.080;11.960;2023-12-28T13:36:20;3.55;;;3.20;;
23362;SDS011;11853;48.080;11.960;2023-12-28T13:38:46;3.33;;;3.03;;
23362;SDS011;11853;48.080;11.960;2023-12-28T13:41:13;4.18;;;3.22;;
23362;SDS011;11853;48.080;11.960;2023-12-28T13:43:38;3.75;;;2.83;;
23362;SDS011;11853;48.080;11.960;2023-12-28T13:46:04;3.38;;;3.08;;
23362;SDS011;11853;48.080;11.960;2023-12-28T13:48:30;5.78;;;4.40;;
23362;SDS011;11853;48.080;11.960;2023-12-28T13:50:56;6.65;;;5.65;;
23362;SDS011;11853;48.080;11.960;2023-12-28T13:53:22;6.10;;;4.75;;
23362;SDS011;11853;48.080;11.960;2023-12-28T13:55:47;4.63;;;4.00;;
23362;SDS011;11853;48.080;11.960;2023-12-28T13:58:13;5.63;;;4.90;;
23362;SDS011;11853;48.080;11.960;2023-12-28T14:00:42;6.75;;;4.50;;
23362;SDS011;11853;48.080;11.960;2023-12-28T14:03:07;4.30;;;3.90;;
23362;SDS011;11853;48.080;11.960;2023-12-28T14:05:33;5.38;;;4.65;;
23362;SDS011;11853;48.080;11.960;2023-12-28T14:07:58;4.60;;;4.15;;
23362;SDS011;11853;48.080;11.960;2023-12-28T14:10:24;4.65;;;4.13;;
23362;SDS011;11853;48.080;11.960;2023-12-28T14:12:50;4.40;;;4.00;;
23362;SDS011;11853;48.080;11.960;2023-12-28T14:15:15;4.55;;;4.15;;
23362;SDS011;11853;48.080;11.960;2023-12-28T14:17:41;4.70;;;4.22;;
23362;SDS011;11853;48.080;11.960;2023-12-28T14:20:07;5.97;;;4.50;;
23362;SDS011;11853;48.080;11.960;2023-12-28T14:22:36;6.13;;;4.65;;
23362;SDS011;11853;48.080;11.960;2023-12-28T14:25:04;6.07;;;5.47;;
23362;SDS011;11853;48.080;11.960;2023-12-28T14:27:30;8.40;;;6.13;;
23362;SDS011;11853;48.080;11.960;2023-12-28T14:29:56;12.77;;;7.55;;
23362;SDS011;11853;48.080;11.960;2023-12-28T14:32:22;12.98;;;8.68;;
23362;SDS011;11853;48.080;11.960;2023-12-28T14:34:48;15.50;;;9.70;;
23362;SDS011;11853;48.080;11.960;2023-12-28T14:37:14;17.92;;;10.40;;
23362;SDS011;11853;48.080;11.960;2023-12-28T14:39:39;11.38;;;6.78;;
23362;SDS011;11853;48.080;11.960;2023-12-28T14:42:05;7.32;;;5.50;;
23362;SDS011;11853;48.080;11.960;2023-12-28T14:44:31;6.15;;;4.80;;
23362;SDS011;11853;48.080;11.960;2023-12-28T14:46:56;6.22;;;5.03;;